Aviation Digital Data Service (ADDS)

Output produced by METARs form (0621 UTC 19 February 2019)
found at http://www.aviationweather.gov/metar/data/
 
METAR text: UAAA 190600Z 02004MPS 5000 BR FU SCT200 02/M02 Q1012 R05L/CLRD65 R05R/1///60 NOSIG
Conditions at: UAAA (ALMA-ATA , KZ) observed 0600 UTC 19 February 2019
Temperature: 2.0°C (36°F)
Dewpoint: -2.0°C (28°F) [RH = 75%]
Pressure (altimeter): 29.88 inches Hg (1012.0 mb)
Winds: from the NNE (20 degrees) at 9 MPH (8 knots; 4.1 m/s)
Visibility: 3 miles ( 5 km)
Ceiling: at least 12,000 feet AGL
Clouds: scattered clouds at 20000 feet AGL
Weather: BR FU  (mist, smoke)

METAR text: UAAA 190530Z 02004MPS 5000 BR FU SCT200 01/M02 Q1012 R05L/CLRD65 R05R/1///60 NOSIG
Conditions at: UAAA (ALMA-ATA , KZ) observed 0530 UTC 19 February 2019
Temperature: 1.0°C (34°F)
Dewpoint: -2.0°C (28°F) [RH = 80%]
Pressure (altimeter): 29.88 inches Hg (1012.0 mb)
Winds: from the NNE (20 degrees) at 9 MPH (8 knots; 4.1 m/s)
Visibility: 3 miles ( 5 km)
Ceiling: at least 12,000 feet AGL
Clouds: scattered clouds at 20000 feet AGL
Weather: BR FU  (mist, smoke)

METAR text: UAAA 190500Z 05004MPS 4400 BR FU SCT200 01/M03 Q1013 R05L/CLRD65 R05R/1///60 NOSIG
Conditions at: UAAA (ALMA-ATA , KZ) observed 0500 UTC 19 February 2019
Temperature: 1.0°C (34°F)
Dewpoint: -3.0°C (27°F) [RH = 75%]
Pressure (altimeter): 29.91 inches Hg (1013.0 mb)
Winds: from the NE (50 degrees) at 9 MPH (8 knots; 4.1 m/s)
Visibility: 2.73 miles (4.39 km)
Ceiling: at least 12,000 feet AGL
Clouds: scattered clouds at 20000 feet AGL
Weather: BR FU  (mist, smoke)

METAR text: UAAA 190430Z 03004MPS 3300 BR FU SCT200 01/M03 Q1013 R05L/CLRD65 R05R/1///60 NOSIG
Conditions at: UAAA (ALMA-ATA , KZ) observed 0430 UTC 19 February 2019
Temperature: 1.0°C (34°F)
Dewpoint: -3.0°C (27°F) [RH = 75%]
Pressure (altimeter): 29.91 inches Hg (1013.0 mb)
Winds: from the NNE (30 degrees) at 9 MPH (8 knots; 4.1 m/s)
Visibility: 2.05 miles (3.30 km)
Ceiling: at least 12,000 feet AGL
Clouds: scattered clouds at 20000 feet AGL
Weather: BR FU  (mist, smoke)

METAR text: UAAA 190400Z 06003MPS 2900 BR FU SCT200 00/M03 Q1013 R05L/CLRD65 R05R/3///60 NOSIG
Conditions at: UAAA (ALMA-ATA , KZ) observed 0400 UTC 19 February 2019
Temperature: 0.0°C (32°F)
Dewpoint: -3.0°C (27°F) [RH = 80%]
Pressure (altimeter): 29.91 inches Hg (1013.0 mb)
Winds: from the ENE (60 degrees) at 7 MPH (6 knots; 3.1 m/s)
Visibility: 1.80 miles (2.90 km)
Ceiling: at least 12,000 feet AGL
Clouds: scattered clouds at 20000 feet AGL
Weather: BR FU  (mist, smoke)

METAR text: UAAA 190330Z 08002MPS 2400 BR FU SCT200 00/M03 Q1013 R05L/CLRD65 R05R/3///60 NOSIG
Conditions at: UAAA (ALMA-ATA , KZ) observed 0330 UTC 19 February 2019
Temperature: 0.0°C (32°F)
Dewpoint: -3.0°C (27°F) [RH = 80%]
Pressure (altimeter): 29.91 inches Hg (1013.0 mb)
Winds: from the E (80 degrees) at 5 MPH (4 knots; 2.1 m/s)
Visibility: 1.49 miles (2.40 km)
Ceiling: at least 12,000 feet AGL
Clouds: scattered clouds at 20000 feet AGL
Weather: BR FU  (mist, smoke)

METAR text: UAAA 190300Z 10001MPS 2200 BR FU SCT100 BKN200 M00/M02 Q1013 R05L/CLRD65 R05R/3///60 NOSIG
Conditions at: UAAA (ALMA-ATA , KZ) observed 0300 UTC 19 February 2019
Temperature: 0.0°C (32°F)
Dewpoint: -2.0°C (28°F) [RH = 86%]
Pressure (altimeter): 29.91 inches Hg (1013.0 mb)
Winds: from the E (100 degrees) at 2 MPH (2 knots; 1.0 m/s)
Visibility: 1.37 miles (2.20 km)
Ceiling: 20000 feet AGL
Clouds: scattered clouds at 10000 feet AGL
broken clouds at 20000 feet AGL
Weather: BR FU  (mist, smoke)

METAR text: UAAA 190230Z 12002MPS 060V180 3300 BR FU FEW050 SCT100 BKN200 M02/M03 Q1013 R05L/CLRD65 R05R/3///60 NOSIG
Conditions at: UAAA (ALMA-ATA , KZ) observed 0230 UTC 19 February 2019
Temperature: -2.0°C (28°F)
Dewpoint: -3.0°C (27°F) [RH = 93%]
Pressure (altimeter): 29.91 inches Hg (1013.0 mb)
Winds: from the ESE (120 degrees) at 5 MPH (4 knots; 2.1 m/s)
Visibility: 2.05 miles (3.30 km)
Ceiling: 20000 feet AGL
Clouds: few clouds at 5000 feet AGL
scattered clouds at 10000 feet AGL
broken clouds at 20000 feet AGL
Weather: BR FU  (mist, smoke)

METAR text: UAAA 190200Z 18002MPS 2800 BR FU SCT046 BKN100 M02/M03 Q1013 R05L/1///60 R05R/3///50 NOSIG
Conditions at: UAAA (ALMA-ATA , KZ) observed 0200 UTC 19 February 2019
Temperature: -2.0°C (28°F)
Dewpoint: -3.0°C (27°F) [RH = 93%]
Pressure (altimeter): 29.91 inches Hg (1013.0 mb)
Winds: from the S (180 degrees) at 5 MPH (4 knots; 2.1 m/s)
Visibility: 1.74 miles (2.80 km)
Ceiling: 10000 feet AGL
Clouds: scattered clouds at 4600 feet AGL
broken clouds at 10000 feet AGL
Weather: BR FU  (mist, smoke)

METAR text: UAAA 190130Z 29001MPS 9999 SCT045 BKN100 M02/M03 Q1012 R05L/1///60 R05R/3///50 NOSIG
Conditions at: UAAA (ALMA-ATA , KZ) observed 0130 UTC 19 February 2019
Temperature: -2.0°C (28°F)
Dewpoint: -3.0°C (27°F) [RH = 93%]
Pressure (altimeter): 29.88 inches Hg (1012.0 mb)
Winds: from the WNW (290 degrees) at 2 MPH (2 knots; 1.0 m/s)
Visibility: 6 or more miles (10+ km)
Ceiling: 10000 feet AGL
Clouds: scattered clouds at 4500 feet AGL
broken clouds at 10000 feet AGL
Weather: no significant weather observed at this time

METAR text: UAAA 190100Z 32002MPS 9999 BKN045 OVC100 M01/M03 Q1012 R05L/1///60 R05R/3///50 NOSIG
Conditions at: UAAA (ALMA-ATA , KZ) observed 0100 UTC 19 February 2019
Temperature: -1.0°C (30°F)
Dewpoint: -3.0°C (27°F) [RH = 86%]
Pressure (altimeter): 29.88 inches Hg (1012.0 mb)
Winds: from the NW (320 degrees) at 5 MPH (4 knots; 2.1 m/s)
Visibility: 6 or more miles (10+ km)
Ceiling: 4500 feet AGL
Clouds: broken clouds at 4500 feet AGL
overcast cloud deck at 10000 feet AGL
Weather: no significant weather observed at this time

METAR text: UAAA 190030Z 35002MPS 9999 BKN043 OVC100 M01/M03 Q1012 R05L/1///60 R05R/3///50 NOSIG
Conditions at: UAAA (ALMA-ATA , KZ) observed 0030 UTC 19 February 2019
Temperature: -1.0°C (30°F)
Dewpoint: -3.0°C (27°F) [RH = 86%]
Pressure (altimeter): 29.88 inches Hg (1012.0 mb)
Winds: from the N (350 degrees) at 5 MPH (4 knots; 2.1 m/s)
Visibility: 6 or more miles (10+ km)
Ceiling: 4300 feet AGL
Clouds: broken clouds at 4300 feet AGL
overcast cloud deck at 10000 feet AGL
Weather: no significant weather observed at this time

METAR text: UAAA 190000Z 15002MPS 9999 BKN044 OVC100 M01/M02 Q1012 R23R/1///60 R23L/3///50 NOSIG
Conditions at: UAAA (ALMA-ATA , KZ) observed 0000 UTC 19 February 2019
Temperature: -1.0°C (30°F)
Dewpoint: -2.0°C (28°F) [RH = 93%]
Pressure (altimeter): 29.88 inches Hg (1012.0 mb)
Winds: from the SSE (150 degrees) at 5 MPH (4 knots; 2.1 m/s)
Visibility: 6 or more miles (10+ km)
Ceiling: 4400 feet AGL
Clouds: broken clouds at 4400 feet AGL
overcast cloud deck at 10000 feet AGL
Weather: no significant weather observed at this time

METAR text: UAAA 182330Z 13002MPS 9999 BKN039 OVC100 M01/M03 Q1012 R23R/1///60 R23L/3///50 NOSIG
Conditions at: UAAA (ALMA-ATA , KZ) observed 2330 UTC 18 February 2019
Temperature: -1.0°C (30°F)
Dewpoint: -3.0°C (27°F) [RH = 86%]
Pressure (altimeter): 29.88 inches Hg (1012.0 mb)
Winds: from the SE (130 degrees) at 5 MPH (4 knots; 2.1 m/s)
Visibility: 6 or more miles (10+ km)
Ceiling: 3900 feet AGL
Clouds: broken clouds at 3900 feet AGL
overcast cloud deck at 10000 feet AGL
Weather: no significant weather observed at this time

METAR text: UAAA 182300Z 24002MPS 9999 BKN013 OVC100 M01/M02 Q1012 R23R/1///60 R23L/3///50 NOSIG
Conditions at: UAAA (ALMA-ATA , KZ) observed 2300 UTC 18 February 2019
Temperature: -1.0°C (30°F)
Dewpoint: -2.0°C (28°F) [RH = 93%]
Pressure (altimeter): 29.88 inches Hg (1012.0 mb)
Winds: from the WSW (240 degrees) at 5 MPH (4 knots; 2.1 m/s)
Visibility: 6 or more miles (10+ km)
Ceiling: 1300 feet AGL
Clouds: broken clouds at 1300 feet AGL
overcast cloud deck at 10000 feet AGL
Weather: no significant weather observed at this time

METAR text: UAAA 182230Z 22002MPS 9999 BKN015 OVC100 M01/M03 Q1012 R23R/1///60 R23L/3///50 NOSIG
Conditions at: UAAA (ALMA-ATA , KZ) observed 2230 UTC 18 February 2019
Temperature: -1.0°C (30°F)
Dewpoint: -3.0°C (27°F) [RH = 86%]
Pressure (altimeter): 29.88 inches Hg (1012.0 mb)
Winds: from the SW (220 degrees) at 5 MPH (4 knots; 2.1 m/s)
Visibility: 6 or more miles (10+ km)
Ceiling: 1500 feet AGL
Clouds: broken clouds at 1500 feet AGL
overcast cloud deck at 10000 feet AGL
Weather: no significant weather observed at this time

METAR text: UAAA 182200Z 20003MPS 9999 BKN017 OVC100 M01/M02 Q1012 R23R/1///60 R23L/3///50 NOSIG
Conditions at: UAAA (ALMA-ATA , KZ) observed 2200 UTC 18 February 2019
Temperature: -1.0°C (30°F)
Dewpoint: -2.0°C (28°F) [RH = 93%]
Pressure (altimeter): 29.88 inches Hg (1012.0 mb)
Winds: from the SSW (200 degrees) at 7 MPH (6 knots; 3.1 m/s)
Visibility: 6 or more miles (10+ km)
Ceiling: 1700 feet AGL
Clouds: broken clouds at 1700 feet AGL
overcast cloud deck at 10000 feet AGL
Weather: no significant weather observed at this time

METAR text: UAAA 182130Z 20002MPS 9999 SCT010 OVC033 M01/M02 Q1012 R23R/1///60 R23L/3///50 NOSIG
Conditions at: UAAA (ALMA-ATA , KZ) observed 2130 UTC 18 February 2019
Temperature: -1.0°C (30°F)
Dewpoint: -2.0°C (28°F) [RH = 93%]
Pressure (altimeter): 29.88 inches Hg (1012.0 mb)
Winds: from the SSW (200 degrees) at 5 MPH (4 knots; 2.1 m/s)
Visibility: 6 or more miles (10+ km)
Ceiling: 3300 feet AGL
Clouds: scattered clouds at 1000 feet AGL
overcast cloud deck at 3300 feet AGL
Weather: no significant weather observed at this time

METAR text: UAAA 182100Z 27002MPS 9999 SCT014 OVC033 M01/M03 Q1012 R23R/1///60 R23L/3///50 NOSIG
Conditions at: UAAA (ALMA-ATA , KZ) observed 2100 UTC 18 February 2019
Temperature: -1.0°C (30°F)
Dewpoint: -3.0°C (27°F) [RH = 86%]
Pressure (altimeter): 29.88 inches Hg (1012.0 mb)
Winds: from the W (270 degrees) at 5 MPH (4 knots; 2.1 m/s)
Visibility: 6 or more miles (10+ km)
Ceiling: 3300 feet AGL
Clouds: scattered clouds at 1400 feet AGL
overcast cloud deck at 3300 feet AGL
Weather: no significant weather observed at this time

METAR text: UAAA 182030Z 26003MPS 9999 SCT015 OVC033 M01/M03 Q1012 R23R/1///60 R23L/3///50 NOSIG
Conditions at: UAAA (ALMA-ATA , KZ) observed 2030 UTC 18 February 2019
Temperature: -1.0°C (30°F)
Dewpoint: -3.0°C (27°F) [RH = 86%]
Pressure (altimeter): 29.88 inches Hg (1012.0 mb)
Winds: from the W (260 degrees) at 7 MPH (6 knots; 3.1 m/s)
Visibility: 6 or more miles (10+ km)
Ceiling: 3300 feet AGL
Clouds: scattered clouds at 1500 feet AGL
overcast cloud deck at 3300 feet AGL
Weather: no significant weather observed at this time

METAR text: UAAA 182000Z 26004MPS 9999 SCT010 OVC033 M01/M03 Q1012 R23R/1///60 R23L/3///50 NOSIG
Conditions at: UAAA (ALMA-ATA , KZ) observed 2000 UTC 18 February 2019
Temperature: -1.0°C (30°F)
Dewpoint: -3.0°C (27°F) [RH = 86%]
Pressure (altimeter): 29.88 inches Hg (1012.0 mb)
Winds: from the W (260 degrees) at 9 MPH (8 knots; 4.1 m/s)
Visibility: 6 or more miles (10+ km)
Ceiling: 3300 feet AGL
Clouds: scattered clouds at 1000 feet AGL
overcast cloud deck at 3300 feet AGL
Weather: no significant weather observed at this time

METAR text: UAAA 181930Z 27004MPS 9999 SCT009 OVC033 M01/M02 Q1011 R23R/1///60 R23L/3///50 NOSIG
Conditions at: UAAA (ALMA-ATA , KZ) observed 1930 UTC 18 February 2019
Temperature: -1.0°C (30°F)
Dewpoint: -2.0°C (28°F) [RH = 93%]
Pressure (altimeter): 29.85 inches Hg (1011.0 mb)
Winds: from the W (270 degrees) at 9 MPH (8 knots; 4.1 m/s)
Visibility: 6 or more miles (10+ km)
Ceiling: 3300 feet AGL
Clouds: scattered clouds at 900 feet AGL
overcast cloud deck at 3300 feet AGL
Weather: no significant weather observed at this time

METAR text: UAAA 181900Z 25004MPS 9999 SCT011 OVC033 M01/M02 Q1011 R23R/1///60 R23L/3///50 NOSIG
Conditions at: UAAA (ALMA-ATA , KZ) observed 1900 UTC 18 February 2019
Temperature: -1.0°C (30°F)
Dewpoint: -2.0°C (28°F) [RH = 93%]
Pressure (altimeter): 29.85 inches Hg (1011.0 mb)
Winds: from the WSW (250 degrees) at 9 MPH (8 knots; 4.1 m/s)
Visibility: 6 or more miles (10+ km)
Ceiling: 3300 feet AGL
Clouds: scattered clouds at 1100 feet AGL
overcast cloud deck at 3300 feet AGL
Weather: no significant weather observed at this time

METAR text: UAAA 181830Z 24002MPS 5000 BR SCT016 OVC100 M01/M02 Q1010 R23R/1///60 R23L/3///50 NOSIG
Conditions at: UAAA (ALMA-ATA , KZ) observed 1830 UTC 18 February 2019
Temperature: -1.0°C (30°F)
Dewpoint: -2.0°C (28°F) [RH = 93%]
Pressure (altimeter): 29.82 inches Hg (1010.0 mb)
Winds: from the WSW (240 degrees) at 5 MPH (4 knots; 2.1 m/s)
Visibility: 3 miles ( 5 km)
Ceiling: 10000 feet AGL
Clouds: scattered clouds at 1600 feet AGL
overcast cloud deck at 10000 feet AGL
Weather: BR  (mist)

METAR text: UAAA 181800Z 24003MPS 9999 SCT022 BKN100 M01/M02 Q1010 R23R/1///60 R23L/3///50 NOSIG
Conditions at: UAAA (ALMA-ATA , KZ) observed 1800 UTC 18 February 2019
Temperature: -1.0°C (30°F)
Dewpoint: -2.0°C (28°F) [RH = 93%]
Pressure (altimeter): 29.82 inches Hg (1010.0 mb)
Winds: from the WSW (240 degrees) at 7 MPH (6 knots; 3.1 m/s)
Visibility: 6 or more miles (10+ km)
Ceiling: 10000 feet AGL
Clouds: scattered clouds at 2200 feet AGL
broken clouds at 10000 feet AGL
Weather: no significant weather observed at this time

METAR text: UAAA 181730Z 26002MPS 9999 SCT020 BKN100 M01/M02 Q1010 R23R/1///60 R23L/2/0150 NOSIG
Conditions at: UAAA (ALMA-ATA , KZ) observed 1730 UTC 18 February 2019
Temperature: -1.0°C (30°F)
Dewpoint: -2.0°C (28°F) [RH = 93%]
Pressure (altimeter): 29.82 inches Hg (1010.0 mb)
Winds: from the W (260 degrees) at 5 MPH (4 knots; 2.1 m/s)
Visibility: 6 or more miles (10+ km)
Ceiling: 10000 feet AGL
Clouds: scattered clouds at 2000 feet AGL
broken clouds at 10000 feet AGL
Weather: no significant weather observed at this time

METAR text: UAAA 181700Z 29002MPS 260V320 4800 BR SCT021 BKN100 M01/M02 Q1009 R23R/1///60 R23L/2/0150 NOSIG
Conditions at: UAAA (ALMA-ATA , KZ) observed 1700 UTC 18 February 2019
Temperature: -1.0°C (30°F)
Dewpoint: -2.0°C (28°F) [RH = 93%]
Pressure (altimeter): 29.79 inches Hg (1009.0 mb)
Winds: from the WNW (290 degrees) at 5 MPH (4 knots; 2.1 m/s)
Visibility: 2.98 miles (4.80 km)
Ceiling: 10000 feet AGL
Clouds: scattered clouds at 2100 feet AGL
broken clouds at 10000 feet AGL
Weather: BR  (mist)

METAR text: UAAA 181630Z VRB01MPS 3300 BR SCT015 BKN100 M01/M02 Q1009 R23R/1///60 R23L/2/0150 NOSIG
Conditions at: UAAA (ALMA-ATA , KZ) observed 1630 UTC 18 February 2019
Temperature: -1.0°C (30°F)
Dewpoint: -2.0°C (28°F) [RH = 93%]
Pressure (altimeter): 29.79 inches Hg (1009.0 mb)
Winds: variable direction winds at 2 MPH (2 knots; 1.0 m/s)
Visibility: 2.05 miles (3.30 km)
Ceiling: 10000 feet AGL
Clouds: scattered clouds at 1500 feet AGL
broken clouds at 10000 feet AGL
Weather: BR  (mist)

METAR text: UAAA 181600Z VRB01MPS 1600 R23R/P2000U R23L/P2000N BR SCT011 BKN023 M01/M02 Q1009 R23R/1///60 R23L/2/0150 TEMPO 0600 FZFG FU
Conditions at: UAAA (ALMA-ATA , KZ) observed 1600 UTC 18 February 2019
Temperature: -1.0°C (30°F)
Dewpoint: -2.0°C (28°F) [RH = 93%]
Pressure (altimeter): 29.79 inches Hg (1009.0 mb)
Winds: variable direction winds at 2 MPH (2 knots; 1.0 m/s)
Visibility: 0.99 miles (1.59 km)
Ceiling: 2300 feet AGL
Clouds: scattered clouds at 1100 feet AGL
broken clouds at 2300 feet AGL
Weather: BR  (mist)

METAR text: UAAA 181530Z 21001MPS 1000 R05L/P2000U R05R/P2000N BR SCT008 BKN025 M01/M02 Q1009 R05L/1///60 R05R/2/0150 TEMPO 0600 FZFG FU
Conditions at: UAAA (ALMA-ATA , KZ) observed 1530 UTC 18 February 2019
Temperature: -1.0°C (30°F)
Dewpoint: -2.0°C (28°F) [RH = 93%]
Pressure (altimeter): 29.79 inches Hg (1009.0 mb)
Winds: from the SSW (210 degrees) at 2 MPH (2 knots; 1.0 m/s)
Visibility: 0.62 miles (1.00 km)
Ceiling: 2500 feet AGL
Clouds: scattered clouds at 800 feet AGL
broken clouds at 2500 feet AGL
Weather: BR  (mist)

METAR text: UAAA 181500Z 01001MPS 1100 R05L/P2000D R05R/P2000U BR SCT050 BKN100 M02/M03 Q1009 R05L/1///60 R05R/2/0150 TEMPO 0600 FZFG FU
Conditions at: UAAA (ALMA-ATA , KZ) observed 1500 UTC 18 February 2019
Temperature: -2.0°C (28°F)
Dewpoint: -3.0°C (27°F) [RH = 93%]
Pressure (altimeter): 29.79 inches Hg (1009.0 mb)
Winds: from the N (10 degrees) at 2 MPH (2 knots; 1.0 m/s)
Visibility: 0.68 miles (1.09 km)
Ceiling: 10000 feet AGL
Clouds: scattered clouds at 5000 feet AGL
broken clouds at 10000 feet AGL
Weather: BR  (mist)

METAR text: UAAA 181430Z 03001MPS 1500 R05L/P2000N R05R/2000 BR FU SCT050 BKN100 M01/M03 Q1009 R05L/1///60 R05R/2/0150 TEMPO 1200 BR FU
Conditions at: UAAA (ALMA-ATA , KZ) observed 1430 UTC 18 February 2019
Temperature: -1.0°C (30°F)
Dewpoint: -3.0°C (27°F) [RH = 86%]
Pressure (altimeter): 29.79 inches Hg (1009.0 mb)
Winds: from the NNE (30 degrees) at 2 MPH (2 knots; 1.0 m/s)
Visibility: 0.93 miles (1.50 km)
Ceiling: 10000 feet AGL
Clouds: scattered clouds at 5000 feet AGL
broken clouds at 10000 feet AGL
Weather: FU BR  (smoke, mist)

METAR text: UAAA 181400Z 16001MPS 1500 R05L/P2000 R05R/2000 BR FU SCT050 BKN100 M01/M02 Q1009 R05L/1///60 R05R/2/0150 TEMPO 1200 BR FU
Conditions at: UAAA (ALMA-ATA , KZ) observed 1400 UTC 18 February 2019
Temperature: -1.0°C (30°F)
Dewpoint: -2.0°C (28°F) [RH = 93%]
Pressure (altimeter): 29.79 inches Hg (1009.0 mb)
Winds: from the SSE (160 degrees) at 2 MPH (2 knots; 1.0 m/s)
Visibility: 0.93 miles (1.50 km)
Ceiling: 10000 feet AGL
Clouds: scattered clouds at 5000 feet AGL
broken clouds at 10000 feet AGL
Weather: FU BR  (smoke, mist)

METAR text: UAAA 181330Z 13001MPS 9999 SCT050 BKN100 M00/M02 Q1009 R05L/1///60 R05R/2/0150 NOSIG
Conditions at: UAAA (ALMA-ATA , KZ) observed 1330 UTC 18 February 2019
Temperature: 0.0°C (32°F)
Dewpoint: -2.0°C (28°F) [RH = 86%]
Pressure (altimeter): 29.79 inches Hg (1009.0 mb)
Winds: from the SE (130 degrees) at 2 MPH (2 knots; 1.0 m/s)
Visibility: 6 or more miles (10+ km)
Ceiling: 10000 feet AGL
Clouds: scattered clouds at 5000 feet AGL
broken clouds at 10000 feet AGL
Weather: no significant weather observed at this time

METAR text: UAAA 181300Z 01003MPS 9999 SCT050 BKN100 M01/M03 Q1009 R05L/1///60 R05R/2/0150 NOSIG
Conditions at: UAAA (ALMA-ATA , KZ) observed 1300 UTC 18 February 2019
Temperature: -1.0°C (30°F)
Dewpoint: -3.0°C (27°F) [RH = 86%]
Pressure (altimeter): 29.79 inches Hg (1009.0 mb)
Winds: from the N (10 degrees) at 7 MPH (6 knots; 3.1 m/s)
Visibility: 6 or more miles (10+ km)
Ceiling: 10000 feet AGL
Clouds: scattered clouds at 5000 feet AGL
broken clouds at 10000 feet AGL
Weather: no significant weather observed at this time

METAR text: UAAA 181230Z 02002MPS 9999 BKN050CB OVC100 00/M02 Q1009 R05L/1///60 R05R/2/0150 NOSIG
Conditions at: UAAA (ALMA-ATA , KZ) observed 1230 UTC 18 February 2019
Temperature: 0.0°C (32°F)
Dewpoint: -2.0°C (28°F) [RH = 86%]
Pressure (altimeter): 29.79 inches Hg (1009.0 mb)
Winds: from the NNE (20 degrees) at 5 MPH (4 knots; 2.1 m/s)
Visibility: 6 or more miles (10+ km)
Ceiling: 5000 feet AGL
Clouds: broken clouds at 5000 feet AGL
overcast cloud deck at 10000 feet AGL
Weather: no significant weather observed at this time

METAR text: UAAA 181200Z 35002MPS 9999 BKN043CB OVC100 01/M01 Q1009 R05L/1///60 R05R/2/0150 NOSIG
Conditions at: UAAA (ALMA-ATA , KZ) observed 1200 UTC 18 February 2019
Temperature: 1.0°C (34°F)
Dewpoint: -1.0°C (30°F) [RH = 86%]
Pressure (altimeter): 29.79 inches Hg (1009.0 mb)
Winds: from the N (350 degrees) at 5 MPH (4 knots; 2.1 m/s)
Visibility: 6 or more miles (10+ km)
Ceiling: 4300 feet AGL
Clouds: broken clouds at 4300 feet AGL
overcast cloud deck at 10000 feet AGL
Weather: no significant weather observed at this time

METAR text: UAAA 181130Z 36003MPS 9999 BKN033CB OVC100 01/M01 Q1009 R05L/1///60 R05R/2/0150 NOSIG
Conditions at: UAAA (ALMA-ATA , KZ) observed 1130 UTC 18 February 2019
Temperature: 1.0°C (34°F)
Dewpoint: -1.0°C (30°F) [RH = 86%]
Pressure (altimeter): 29.79 inches Hg (1009.0 mb)
Winds: from the N (360 degrees) at 7 MPH (6 knots; 3.1 m/s)
Visibility: 6 or more miles (10+ km)
Ceiling: 3300 feet AGL
Clouds: broken clouds at 3300 feet AGL
overcast cloud deck at 10000 feet AGL
Weather: no significant weather observed at this time

METAR text: UAAA 181100Z 01003MPS 9999 BKN035CB OVC100 01/M02 Q1009 R88/2/0150 NOSIG
Conditions at: UAAA (ALMA-ATA , KZ) observed 1100 UTC 18 February 2019
Temperature: 1.0°C (34°F)
Dewpoint: -2.0°C (28°F) [RH = 80%]
Pressure (altimeter): 29.79 inches Hg (1009.0 mb)
Winds: from the N (10 degrees) at 7 MPH (6 knots; 3.1 m/s)
Visibility: 6 or more miles (10+ km)
Ceiling: 3500 feet AGL
Clouds: broken clouds at 3500 feet AGL
overcast cloud deck at 10000 feet AGL
Weather: no significant weather observed at this time

METAR text: UAAA 181030Z 02003MPS 9999 BKN036CB OVC100 01/M01 Q1010 R88/2/0150 NOSIG
Conditions at: UAAA (ALMA-ATA , KZ) observed 1030 UTC 18 February 2019
Temperature: 1.0°C (34°F)
Dewpoint: -1.0°C (30°F) [RH = 86%]
Pressure (altimeter): 29.82 inches Hg (1010.0 mb)
Winds: from the NNE (20 degrees) at 7 MPH (6 knots; 3.1 m/s)
Visibility: 6 or more miles (10+ km)
Ceiling: 3600 feet AGL
Clouds: broken clouds at 3600 feet AGL
overcast cloud deck at 10000 feet AGL
Weather: no significant weather observed at this time

METAR text: UAAA 181000Z 03003MPS 9999 BKN033CB OVC100 01/M01 Q1010 R88/2/0150 NOSIG
Conditions at: UAAA (ALMA-ATA , KZ) observed 1000 UTC 18 February 2019
Temperature: 1.0°C (34°F)
Dewpoint: -1.0°C (30°F) [RH = 86%]
Pressure (altimeter): 29.82 inches Hg (1010.0 mb)
Winds: from the NNE (30 degrees) at 7 MPH (6 knots; 3.1 m/s)
Visibility: 6 or more miles (10+ km)
Ceiling: 3300 feet AGL
Clouds: broken clouds at 3300 feet AGL
overcast cloud deck at 10000 feet AGL
Weather: no significant weather observed at this time

METAR text: UAAA 180930Z 04003MPS 9999 BKN033CB OVC100 01/M01 Q1011 R88/2/0150 NOSIG
Conditions at: UAAA (ALMA-ATA , KZ) observed 0930 UTC 18 February 2019
Temperature: 1.0°C (34°F)
Dewpoint: -1.0°C (30°F) [RH = 86%]
Pressure (altimeter): 29.85 inches Hg (1011.0 mb)
Winds: from the NE (40 degrees) at 7 MPH (6 knots; 3.1 m/s)
Visibility: 6 or more miles (10+ km)
Ceiling: 3300 feet AGL
Clouds: broken clouds at 3300 feet AGL
overcast cloud deck at 10000 feet AGL
Weather: no significant weather observed at this time

METAR text: UAAA 180900Z 05003MPS 9999 BKN033CB OVC100 01/M01 Q1011 R88/2/0150 NOSIG
Conditions at: UAAA (ALMA-ATA , KZ) observed 0900 UTC 18 February 2019
Temperature: 1.0°C (34°F)
Dewpoint: -1.0°C (30°F) [RH = 86%]
Pressure (altimeter): 29.85 inches Hg (1011.0 mb)
Winds: from the NE (50 degrees) at 7 MPH (6 knots; 3.1 m/s)
Visibility: 6 or more miles (10+ km)
Ceiling: 3300 feet AGL
Clouds: broken clouds at 3300 feet AGL
overcast cloud deck at 10000 feet AGL
Weather: no significant weather observed at this time

METAR text: UAAA 180830Z 06003MPS 9999 BKN033CB OVC100 01/M01 Q1011 R88/2/0150 NOSIG
Conditions at: UAAA (ALMA-ATA , KZ) observed 0830 UTC 18 February 2019
Temperature: 1.0°C (34°F)
Dewpoint: -1.0°C (30°F) [RH = 86%]
Pressure (altimeter): 29.85 inches Hg (1011.0 mb)
Winds: from the ENE (60 degrees) at 7 MPH (6 knots; 3.1 m/s)
Visibility: 6 or more miles (10+ km)
Ceiling: 3300 feet AGL
Clouds: broken clouds at 3300 feet AGL
overcast cloud deck at 10000 feet AGL
Weather: no significant weather observed at this time

METAR text: UAAA 180800Z 07004MPS 9999 BKN027CB OVC100 01/M01 Q1012 R88/2/0150 NOSIG
Conditions at: UAAA (ALMA-ATA , KZ) observed 0800 UTC 18 February 2019
Temperature: 1.0°C (34°F)
Dewpoint: -1.0°C (30°F) [RH = 86%]
Pressure (altimeter): 29.88 inches Hg (1012.0 mb)
Winds: from the ENE (70 degrees) at 9 MPH (8 knots; 4.1 m/s)
Visibility: 6 or more miles (10+ km)
Ceiling: 2700 feet AGL
Clouds: broken clouds at 2700 feet AGL
overcast cloud deck at 10000 feet AGL
Weather: no significant weather observed at this time

METAR text: UAAA 180730Z 08004MPS 9999 -SHRASN BKN015CB OVC100 01/M00 Q1012 R88/2/0150 NOSIG
Conditions at: UAAA (ALMA-ATA , KZ) observed 0730 UTC 18 February 2019
Temperature: 1.0°C (34°F)
Dewpoint: 0.0°C (32°F) [RH = 93%]
Pressure (altimeter): 29.88 inches Hg (1012.0 mb)
Winds: from the E (80 degrees) at 9 MPH (8 knots; 4.1 m/s)
Visibility: 6 or more miles (10+ km)
Ceiling: 1500 feet AGL
Clouds: broken clouds at 1500 feet AGL
overcast cloud deck at 10000 feet AGL
Weather: -SHRA -SHSN  (light rain showers, light snow showers)

METAR text: UAAA 180700Z 06003MPS 9999 -SHRASN BKN015CB OVC100 00/M00 Q1013 R88/2/0150 NOSIG
Conditions at: UAAA (ALMA-ATA , KZ) observed 0700 UTC 18 February 2019
Temperature: 0.0°C (32°F)
Dewpoint: 0.0°C (32°F) [RH = 100%]
Pressure (altimeter): 29.91 inches Hg (1013.0 mb)
Winds: from the ENE (60 degrees) at 7 MPH (6 knots; 3.1 m/s)
Visibility: 6 or more miles (10+ km)
Ceiling: 1500 feet AGL
Clouds: broken clouds at 1500 feet AGL
overcast cloud deck at 10000 feet AGL
Weather: -SHRA -SHSN  (light rain showers, light snow showers)

METAR text: UAAA 180630Z 08004MPS 5000 -SHRASN BR BKN010 OVC025CB 00/M00 Q1013 R88/2/0150 NOSIG
Conditions at: UAAA (ALMA-ATA , KZ) observed 0630 UTC 18 February 2019
Temperature: 0.0°C (32°F)
Dewpoint: 0.0°C (32°F) [RH = 100%]
Pressure (altimeter): 29.91 inches Hg (1013.0 mb)
Winds: from the E (80 degrees) at 9 MPH (8 knots; 4.1 m/s)
Visibility: 3 miles ( 5 km)
Ceiling: 1000 feet AGL
Clouds: broken clouds at 1000 feet AGL
overcast cloud deck at 2500 feet AGL
Weather: -SHRA -SHSN BR  (light rain showers, light snow showers, mist)

METAR text: UAAA 180600Z 08004MPS 3700 -SHSN BR BKN007 OVC023CB M00/M00 Q1013 R88/2/0150 NOSIG
Conditions at: UAAA (ALMA-ATA , KZ) observed 0600 UTC 18 February 2019
Temperature: 0.0°C (32°F)
Dewpoint: 0.0°C (32°F) [RH = 100%]
Pressure (altimeter): 29.91 inches Hg (1013.0 mb)
Winds: from the E (80 degrees) at 9 MPH (8 knots; 4.1 m/s)
Visibility: 2.30 miles (3.70 km)
Ceiling: 700 feet AGL
Clouds: broken clouds at 700 feet AGL
overcast cloud deck at 2300 feet AGL
Weather: -SHSN BR  (light snow showers, mist)

METAR text: UAAA 180530Z 04005MPS 3700 -SHSN BR BKN004 OVC021CB M00/M01 Q1013 R88/2/0150 NOSIG RMK QBB140
Conditions at: UAAA (ALMA-ATA , KZ) observed 0530 UTC 18 February 2019
Temperature: 0.0°C (32°F)
Dewpoint: -1.0°C (30°F) [RH = 93%]
Pressure (altimeter): 29.91 inches Hg (1013.0 mb)
Winds: from the NE (40 degrees) at 12 MPH (10 knots; 5.1 m/s)
Visibility: 2.30 miles (3.70 km)
Ceiling: 400 feet AGL
Clouds: broken clouds at 400 feet AGL
overcast cloud deck at 2100 feet AGL
Weather: -SHSN BR  (light snow showers, mist)

METAR text: UAAA 180500Z 03004MPS 1500 R05L/1500U R05R/1600U SHSN BR BKN003 OVC015CB M00/M01 Q1013 R88/2/0150 TEMPO 0800 SHSN FZFG RMK QBB110
Conditions at: UAAA (ALMA-ATA , KZ) observed 0500 UTC 18 February 2019
Temperature: 0.0°C (32°F)
Dewpoint: -1.0°C (30°F) [RH = 93%]
Pressure (altimeter): 29.91 inches Hg (1013.0 mb)
Winds: from the NNE (30 degrees) at 9 MPH (8 knots; 4.1 m/s)
Visibility: 0.93 miles (1.50 km)
Ceiling: 300 feet AGL
Clouds: broken clouds at 300 feet AGL
overcast cloud deck at 1500 feet AGL
Weather: SHSN BR  (snow showers, mist)

METAR text: UAAA 180430Z 36005MPS 1100 R05L/1100 R05R/1200U SHSN BR BKN002 OVC014CB M00/M01 Q1013 R88/2/0150 TEMPO 0800 SHSN FZFG RMK QBB080
Conditions at: UAAA (ALMA-ATA , KZ) observed 0430 UTC 18 February 2019
Temperature: 0.0°C (32°F)
Dewpoint: -1.0°C (30°F) [RH = 93%]
Pressure (altimeter): 29.91 inches Hg (1013.0 mb)
Winds: from the N (360 degrees) at 12 MPH (10 knots; 5.1 m/s)
Visibility: 0.68 miles (1.09 km)
Ceiling: 200 feet AGL
Clouds: broken clouds at 200 feet AGL
overcast cloud deck at 1400 feet AGL
Weather: SHSN BR  (snow showers, mist)

METAR text: UAAA 180400Z 01003MPS 1900 R05L/1900D R05R/P2000D -SHRASN BR BKN003 OVC016CB 00/M01 Q1013 R05L/1///60 R05R/3///50 TEMPO 0800 SHRASN FZFG RMK QBB090
Conditions at: UAAA (ALMA-ATA , KZ) observed 0400 UTC 18 February 2019
Temperature: 0.0°C (32°F)
Dewpoint: -1.0°C (30°F) [RH = 93%]
Pressure (altimeter): 29.91 inches Hg (1013.0 mb)
Winds: from the N (10 degrees) at 7 MPH (6 knots; 3.1 m/s)
Visibility: 1.18 miles (1.90 km)
Ceiling: 300 feet AGL
Clouds: broken clouds at 300 feet AGL
overcast cloud deck at 1600 feet AGL
Weather: -SHRA SN BR  (light rain showers, moderate snow, mist)

METAR text: UAAA 180330Z 36004MPS 5000 BR FU BKN014CB OVC100 01/M01 Q1013 R05L/1///60 R05R/3///50 NOSIG
Conditions at: UAAA (ALMA-ATA , KZ) observed 0330 UTC 18 February 2019
Temperature: 1.0°C (34°F)
Dewpoint: -1.0°C (30°F) [RH = 86%]
Pressure (altimeter): 29.91 inches Hg (1013.0 mb)
Winds: from the N (360 degrees) at 9 MPH (8 knots; 4.1 m/s)
Visibility: 3 miles ( 5 km)
Ceiling: 1400 feet AGL
Clouds: broken clouds at 1400 feet AGL
overcast cloud deck at 10000 feet AGL
Weather: BR FU  (mist, smoke)

METAR text: UAAA 180300Z 01003MPS 5000 BR FU BKN015CB OVC100 01/M02 Q1013 R05L/1///60 R05R/3///50 NOSIG
Conditions at: UAAA (ALMA-ATA , KZ) observed 0300 UTC 18 February 2019
Temperature: 1.0°C (34°F)
Dewpoint: -2.0°C (28°F) [RH = 80%]
Pressure (altimeter): 29.91 inches Hg (1013.0 mb)
Winds: from the N (10 degrees) at 7 MPH (6 knots; 3.1 m/s)
Visibility: 3 miles ( 5 km)
Ceiling: 1500 feet AGL
Clouds: broken clouds at 1500 feet AGL
overcast cloud deck at 10000 feet AGL
Weather: BR FU  (mist, smoke)

METAR text: UAAA 180230Z VRB01MPS 5000 BR FU BKN020CB OVC100 01/M02 Q1012 R05L/1///60 R05R/3///50 NOSIG
Conditions at: UAAA (ALMA-ATA , KZ) observed 0230 UTC 18 February 2019
Temperature: 1.0°C (34°F)
Dewpoint: -2.0°C (28°F) [RH = 80%]
Pressure (altimeter): 29.88 inches Hg (1012.0 mb)
Winds: variable direction winds at 2 MPH (2 knots; 1.0 m/s)
Visibility: 3 miles ( 5 km)
Ceiling: 2000 feet AGL
Clouds: broken clouds at 2000 feet AGL
overcast cloud deck at 10000 feet AGL
Weather: BR FU  (mist, smoke)

METAR text: UAAA 180200Z 07002MPS 010V150 9999 BKN028CB OVC100 01/M02 Q1012 R05L/1///60 R05R/3///50 NOSIG
Conditions at: UAAA (ALMA-ATA , KZ) observed 0200 UTC 18 February 2019
Temperature: 1.0°C (34°F)
Dewpoint: -2.0°C (28°F) [RH = 80%]
Pressure (altimeter): 29.88 inches Hg (1012.0 mb)
Winds: from the ENE (70 degrees) at 5 MPH (4 knots; 2.1 m/s)
Visibility: 6 or more miles (10+ km)
Ceiling: 2800 feet AGL
Clouds: broken clouds at 2800 feet AGL
overcast cloud deck at 10000 feet AGL
Weather: no significant weather observed at this time

METAR text: UAAA 180130Z 34004MPS 9999 BKN033CB OVC100 02/M02 Q1011 R05L/1///60 R05R/3///50 NOSIG
Conditions at: UAAA (ALMA-ATA , KZ) observed 0130 UTC 18 February 2019
Temperature: 2.0°C (36°F)
Dewpoint: -2.0°C (28°F) [RH = 75%]
Pressure (altimeter): 29.85 inches Hg (1011.0 mb)
Winds: from the NNW (340 degrees) at 9 MPH (8 knots; 4.1 m/s)
Visibility: 6 or more miles (10+ km)
Ceiling: 3300 feet AGL
Clouds: broken clouds at 3300 feet AGL
overcast cloud deck at 10000 feet AGL
Weather: no significant weather observed at this time

METAR text: UAAA 180100Z 28002MPS 260V320 9999 BKN033CB OVC100 01/M02 Q1011 R23R/1///60 R23L/3///50 NOSIG
Conditions at: UAAA (ALMA-ATA , KZ) observed 0100 UTC 18 February 2019
Temperature: 1.0°C (34°F)
Dewpoint: -2.0°C (28°F) [RH = 80%]
Pressure (altimeter): 29.85 inches Hg (1011.0 mb)
Winds: from the W (280 degrees) at 5 MPH (4 knots; 2.1 m/s)
Visibility: 6 or more miles (10+ km)
Ceiling: 3300 feet AGL
Clouds: broken clouds at 3300 feet AGL
overcast cloud deck at 10000 feet AGL
Weather: no significant weather observed at this time

METAR text: UAAA 180030Z 26003MPS 9999 BKN050CB OVC100 01/M04 Q1011 R23R/1///60 R23L/3///50 NOSIG
Conditions at: UAAA (ALMA-ATA , KZ) observed 0030 UTC 18 February 2019
Temperature: 1.0°C (34°F)
Dewpoint: -4.0°C (25°F) [RH = 69%]
Pressure (altimeter): 29.85 inches Hg (1011.0 mb)
Winds: from the W (260 degrees) at 7 MPH (6 knots; 3.1 m/s)
Visibility: 6 or more miles (10+ km)
Ceiling: 5000 feet AGL
Clouds: broken clouds at 5000 feet AGL
overcast cloud deck at 10000 feet AGL
Weather: no significant weather observed at this time

METAR text: UAAA 180000Z 21005MPS 9999 BKN050CB OVC100 02/M04 Q1010 R23R/1///60 R23L/3///50 NOSIG
Conditions at: UAAA (ALMA-ATA , KZ) observed 0000 UTC 18 February 2019
Temperature: 2.0°C (36°F)
Dewpoint: -4.0°C (25°F) [RH = 64%]
Pressure (altimeter): 29.82 inches Hg (1010.0 mb)
Winds: from the SSW (210 degrees) at 12 MPH (10 knots; 5.1 m/s)
Visibility: 6 or more miles (10+ km)
Ceiling: 5000 feet AGL
Clouds: broken clouds at 5000 feet AGL
overcast cloud deck at 10000 feet AGL
Weather: no significant weather observed at this time

METAR text: UAAA 172330Z 21005MPS 9999 BKN050CB OVC100 02/M04 Q1010 R23R/1///60 R23L/3///50 NOSIG
Conditions at: UAAA (ALMA-ATA , KZ) observed 2330 UTC 17 February 2019
Temperature: 2.0°C (36°F)
Dewpoint: -4.0°C (25°F) [RH = 64%]
Pressure (altimeter): 29.82 inches Hg (1010.0 mb)
Winds: from the SSW (210 degrees) at 12 MPH (10 knots; 5.1 m/s)
Visibility: 6 or more miles (10+ km)
Ceiling: 5000 feet AGL
Clouds: broken clouds at 5000 feet AGL
overcast cloud deck at 10000 feet AGL
Weather: no significant weather observed at this time

METAR text: UAAA 172300Z 25005MPS 9999 BKN050CB OVC100 02/M03 Q1010 R23R/1///60 R23L/3///50 NOSIG
Conditions at: UAAA (ALMA-ATA , KZ) observed 2300 UTC 17 February 2019
Temperature: 2.0°C (36°F)
Dewpoint: -3.0°C (27°F) [RH = 69%]
Pressure (altimeter): 29.82 inches Hg (1010.0 mb)
Winds: from the WSW (250 degrees) at 12 MPH (10 knots; 5.1 m/s)
Visibility: 6 or more miles (10+ km)
Ceiling: 5000 feet AGL
Clouds: broken clouds at 5000 feet AGL
overcast cloud deck at 10000 feet AGL
Weather: no significant weather observed at this time

METAR text: UAAA 172230Z 23003MPS 180V260 3400 BR SCT050CB OVC100 01/M03 Q1009 R23R/1///60 R23L/3///50 NOSIG
Conditions at: UAAA (ALMA-ATA , KZ) observed 2230 UTC 17 February 2019
Temperature: 1.0°C (34°F)
Dewpoint: -3.0°C (27°F) [RH = 75%]
Pressure (altimeter): 29.79 inches Hg (1009.0 mb)
Winds: from the SW (230 degrees) at 7 MPH (6 knots; 3.1 m/s)
Visibility: 2.11 miles (3.40 km)
Ceiling: 10000 feet AGL
Clouds: scattered clouds at 5000 feet AGL
overcast cloud deck at 10000 feet AGL
Weather: BR  (mist)

METAR text: UAAA 172200Z 24003MPS 3800 BR SCT050CB OVC100 01/M03 Q1008 R23R/1///60 R23L/3///50 NOSIG
Conditions at: UAAA (ALMA-ATA , KZ) observed 2200 UTC 17 February 2019
Temperature: 1.0°C (34°F)
Dewpoint: -3.0°C (27°F) [RH = 75%]
Pressure (altimeter): 29.76 inches Hg (1008.0 mb)
Winds: from the WSW (240 degrees) at 7 MPH (6 knots; 3.1 m/s)
Visibility: 2.36 miles (3.80 km)
Ceiling: 10000 feet AGL
Clouds: scattered clouds at 5000 feet AGL
overcast cloud deck at 10000 feet AGL
Weather: BR  (mist)

METAR text: UAAA 172130Z 01002MPS 280V070 3500 BR SCT050CB OVC100 01/M03 Q1008 R23R/1///60 R23L/3///50 NOSIG
Conditions at: UAAA (ALMA-ATA , KZ) observed 2130 UTC 17 February 2019
Temperature: 1.0°C (34°F)
Dewpoint: -3.0°C (27°F) [RH = 75%]
Pressure (altimeter): 29.76 inches Hg (1008.0 mb)
Winds: from the N (10 degrees) at 5 MPH (4 knots; 2.1 m/s)
Visibility: 2.17 miles (3.49 km)
Ceiling: 10000 feet AGL
Clouds: scattered clouds at 5000 feet AGL
overcast cloud deck at 10000 feet AGL
Weather: BR  (mist)

METAR text: UAAA 172100Z 27003MPS 3400 BR SCT050CB OVC100 01/M03 Q1008 R23R/1///60 R23L/3///50 NOSIG
Conditions at: UAAA (ALMA-ATA , KZ) observed 2100 UTC 17 February 2019
Temperature: 1.0°C (34°F)
Dewpoint: -3.0°C (27°F) [RH = 75%]
Pressure (altimeter): 29.76 inches Hg (1008.0 mb)
Winds: from the W (270 degrees) at 7 MPH (6 knots; 3.1 m/s)
Visibility: 2.11 miles (3.40 km)
Ceiling: 10000 feet AGL
Clouds: scattered clouds at 5000 feet AGL
overcast cloud deck at 10000 feet AGL
Weather: BR  (mist)

METAR text: UAAA 172030Z 20004MPS 3100 BR SCT050CB OVC100 02/M02 Q1008 R23R/1///60 R23L/3///50 NOSIG
Conditions at: UAAA (ALMA-ATA , KZ) observed 2030 UTC 17 February 2019
Temperature: 2.0°C (36°F)
Dewpoint: -2.0°C (28°F) [RH = 75%]
Pressure (altimeter): 29.76 inches Hg (1008.0 mb)
Winds: from the SSW (200 degrees) at 9 MPH (8 knots; 4.1 m/s)
Visibility: 1.93 miles (3.11 km)
Ceiling: 10000 feet AGL
Clouds: scattered clouds at 5000 feet AGL
overcast cloud deck at 10000 feet AGL
Weather: BR  (mist)

METAR text: UAAA 172000Z 19003MPS 2500 BR SCT050CB OVC100 01/M03 Q1008 R23R/1///60 R23L/3///50 NOSIG
Conditions at: UAAA (ALMA-ATA , KZ) observed 2000 UTC 17 February 2019
Temperature: 1.0°C (34°F)
Dewpoint: -3.0°C (27°F) [RH = 75%]
Pressure (altimeter): 29.76 inches Hg (1008.0 mb)
Winds: from the S (190 degrees) at 7 MPH (6 knots; 3.1 m/s)
Visibility: 1.55 miles (2.49 km)
Ceiling: 10000 feet AGL
Clouds: scattered clouds at 5000 feet AGL
overcast cloud deck at 10000 feet AGL
Weather: BR  (mist)

METAR text: UAAA 171930Z 31002MPS 2300 BR SCT050CB OVC100 00/M03 Q1007 R23R/1///60 R23L/3///50 NOSIG
Conditions at: UAAA (ALMA-ATA , KZ) observed 1930 UTC 17 February 2019
Temperature: 0.0°C (32°F)
Dewpoint: -3.0°C (27°F) [RH = 80%]
Pressure (altimeter): 29.73 inches Hg (1007.0 mb)
Winds: from the NW (310 degrees) at 5 MPH (4 knots; 2.1 m/s)
Visibility: 1.43 miles (2.30 km)
Ceiling: 10000 feet AGL
Clouds: scattered clouds at 5000 feet AGL
overcast cloud deck at 10000 feet AGL
Weather: BR  (mist)

METAR text: UAAA 171900Z 10002MPS 060V120 2300 BR SCT050CB OVC100 01/M03 Q1006 R23R/1///60 R23L/3///50 NOSIG
Conditions at: UAAA (ALMA-ATA , KZ) observed 1900 UTC 17 February 2019
Temperature: 1.0°C (34°F)
Dewpoint: -3.0°C (27°F) [RH = 75%]
Pressure (altimeter): 29.70 inches Hg (1006.0 mb)
Winds: from the E (100 degrees) at 5 MPH (4 knots; 2.1 m/s)
Visibility: 1.43 miles (2.30 km)
Ceiling: 10000 feet AGL
Clouds: scattered clouds at 5000 feet AGL
overcast cloud deck at 10000 feet AGL
Weather: BR  (mist)

METAR text: UAAA 171830Z 08003MPS 050V130 2100 BR SCT050CB OVC100 01/M03 Q1006 R23R/1///60 R23L/3///50 NOSIG
Conditions at: UAAA (ALMA-ATA , KZ) observed 1830 UTC 17 February 2019
Temperature: 1.0°C (34°F)
Dewpoint: -3.0°C (27°F) [RH = 75%]
Pressure (altimeter): 29.70 inches Hg (1006.0 mb)
Winds: from the E (80 degrees) at 7 MPH (6 knots; 3.1 m/s)
Visibility: 1.30 miles (2.09 km)
Ceiling: 10000 feet AGL
Clouds: scattered clouds at 5000 feet AGL
overcast cloud deck at 10000 feet AGL
Weather: BR  (mist)

Forecast for: UAAA (ALMA-ATA , KZ)
Text: TAF UAAA 190500Z 1906/2006 06004MPS 3100 BR FU SCT015 BKN100 TX03/1908Z TNM03/2001Z
Forecast period: 0600 to 1200 UTC 19 February 2019
Forecast type: FROM: standard forecast or significant change
Winds: from the ENE (60 degrees) at 9 MPH (8 knots; 4.1 m/s)
Visibility: 1.93 miles (3.11 km)
Ceiling: 10000 feet AGL
Clouds: scattered clouds at 1500 feet AGL
broken clouds at 10000 feet AGL
Weather: BR FU  (mist, smoke)
Text: BECMG 1912/1913 16004MPS 1500
Forecast period: 1200 UTC 19 February 2019 to 0600 UTC 20 February 2019
Forecast type: BECOMING: Conditions expected to become as follows by 1300 UTC 19 February 2019
Winds: from the SSE (160 degrees) at 9 MPH (8 knots; 4.1 m/s)
Visibility: 0.93 miles (1.50 km)
Ceiling: 10000 feet AGL
Clouds: scattered clouds at 1500 feet AGL
broken clouds at 10000 feet AGL
Weather: BR FU  (mist, smoke)
Text: TEMPO 1913/1918 0200 FZFG VV002
Forecast period: 1300 to 1800 UTC 19 February 2019
Forecast type: TEMPORARY: The following changes expected for less than half the time period
Visibility: 0.12 miles (0.19 km)
Ceiling: indefinite ceiling with vertical visibility of 200 feet AGL
Clouds: obscured sky
Weather: FZFG  (freezing fog)
Text: TEMPO 1918/2005 0200 FZFG VV001
Forecast period: 1800 UTC 19 February 2019 to 0500 UTC 20 February 2019
Forecast type: TEMPORARY: The following changes expected for less than half the time period
Visibility: 0.12 miles (0.19 km)
Ceiling: indefinite ceiling with vertical visibility of 100 feet AGL
Clouds: obscured sky
Weather: FZFG  (freezing fog)